Time;durP1;ratioP1;P1;durP2;ratioP2;P2;SDS_P1;SDS_P2;PMS_P1;PMS_P2;Temp;Humidity;BMP_temperature;BMP_pressure;BME280_temperature;BME280_humidity;BME280_pressure;Samples;Min_cycle;Max_cycle;Signal;HPM_P1;HPM_P2
2022/04/02 00:01:17;;;;;;;26.20;25.20;;;19.60;41.40;;;;;;5072854;28;20439;-53
2022/04/02 00:03:45;;;;;;;26.33;25.37;;;19.60;41.30;;;;;;5054935;28;20811;-53
2022/04/02 00:06:12;;;;;;;27.37;26.30;;;19.60;41.30;;;;;;5052359;28;20590;-54
2022/04/02 00:08:39;;;;;;;28.10;27.00;;;19.60;41.30;;;;;;5052543;28;20455;-53
2022/04/02 00:11:07;;;;;;;27.90;26.80;;;19.60;41.40;;;;;;5048230;28;20437;-53
2022/04/02 00:13:34;;;;;;;26.60;25.60;;;19.60;41.40;;;;;;5047368;28;20491;-55
2022/04/02 00:16:01;;;;;;;27.27;26.07;;;19.60;41.40;;;;;;5052267;28;20503;-54
2022/04/02 00:18:29;;;;;;;26.93;25.93;;;19.60;41.40;;;;;;5052318;28;20448;-55
2022/04/02 00:20:57;;;;;;;26.70;25.70;;;19.60;41.30;;;;;;5045198;28;20454;-55
2022/04/02 00:23:44;;;;;;;26.37;25.27;;;19.50;41.30;;;;;;5032446;28;20597;-56
2022/04/02 00:26:12;;;;;;;26.97;25.77;;;19.60;41.40;;;;;;5031943;28;20542;-56
2022/04/02 00:28:41;;;;;;;26.77;25.70;;;19.60;41.30;;;;;;5033575;28;21001;-54
2022/04/02 00:31:09;;;;;;;27.20;26.10;;;19.60;41.30;;;;;;5052041;28;20448;-51
2022/04/02 00:33:36;;;;;;;26.87;25.77;;;19.50;41.30;;;;;;5051933;28;20448;-55
2022/04/02 00:36:07;;;;;;;28.33;27.30;;;19.50;41.30;;;;;;5051788;28;20544;-54
2022/04/02 00:38:34;;;;;;;26.90;25.90;;;19.50;41.30;;;;;;5050939;28;20440;-51
2022/04/02 00:41:01;;;;;;;27.60;26.40;;;19.50;41.40;;;;;;5032146;28;20648;-52
2022/04/02 00:43:31;;;;;;;27.17;26.07;;;19.50;41.40;;;;;;5031958;28;20452;-53
2022/04/02 00:46:00;;;;;;;26.90;25.90;;;19.50;41.40;;;;;;5031612;28;20478;-52
2022/04/02 00:48:28;;;;;;;27.07;25.97;;;19.50;41.50;;;;;;5034412;28;20449;-54
2022/04/02 00:50:56;;;;;;;27.07;26.07;;;19.50;41.50;;;;;;5056771;28;20449;-54
2022/04/02 00:53:25;;;;;;;28.10;27.00;;;19.50;41.50;;;;;;5071590;28;20479;-51
2022/04/02 00:55:52;;;;;;;27.50;26.50;;;19.50;41.40;;;;;;5070103;28;20478;-54
2022/04/02 00:58:19;;;;;;;26.27;25.27;;;19.50;41.40;;;;;;5071570;28;20809;-51
2022/04/02 01:00:46;;;;;;;27.70;26.60;;;19.50;41.40;;;;;;5051850;28;20448;-55
2022/04/02 01:03:16;;;;;;;26.73;25.73;;;19.50;41.40;;;;;;5051532;28;20536;-52
2022/04/02 01:05:43;;;;;;;25.40;24.40;;;19.50;41.30;;;;;;5051207;28;20471;-56
2022/04/02 01:08:10;;;;;;;27.10;26.03;;;19.50;41.40;;;;;;5051448;28;20452;-54
2022/04/02 01:10:40;;;;;;;27.40;26.23;;;19.50;41.50;;;;;;5034280;28;20796;-57
2022/04/02 01:13:07;;;;;;;27.80;26.70;;;19.50;41.50;;;;;;5031582;28;20515;-53
2022/04/02 01:15:34;;;;;;;27.63;26.63;;;19.50;41.40;;;;;;5031047;28;20473;-55
2022/04/02 01:18:01;;;;;;;27.03;25.83;;;19.50;41.50;;;;;;5031394;28;20953;-54
2022/04/02 01:20:29;;;;;;;27.27;26.17;;;19.50;41.60;;;;;;5046273;28;20444;-55
2022/04/02 01:22:57;;;;;;;26.60;25.60;;;19.50;41.50;;;;;;5051170;28;20437;-57
2022/04/02 01:25:24;;;;;;;26.87;25.87;;;19.50;41.50;;;;;;5050866;28;20540;-54
2022/04/02 01:27:51;;;;;;;27.30;26.30;;;19.50;41.50;;;;;;5050878;28;20953;-52
2022/04/02 01:30:18;;;;;;;27.00;25.90;;;19.50;41.50;;;;;;5036963;28;20453;-54
2022/04/02 01:32:44;;;;;;;26.97;25.97;;;19.40;41.50;;;;;;5030791;28;21000;-54
2022/04/02 01:35:13;;;;;;;26.97;25.97;;;19.40;41.50;;;;;;5030922;28;20470;-55
2022/04/02 01:37:40;;;;;;;26.90;25.80;;;19.50;41.50;;;;;;5036137;28;20452;-55
2022/04/02 01:40:09;;;;;;;26.97;25.97;;;19.40;41.40;;;;;;5050938;28;20440;-53
2022/04/02 01:42:35;;;;;;;26.23;25.30;;;19.40;41.40;;;;;;5034333;28;20813;-55
2022/04/02 01:45:03;;;;;;;26.93;25.93;;;19.40;41.50;;;;;;5037236;28;20825;-58
2022/04/02 01:47:30;;;;;;;26.73;25.73;;;19.50;41.50;;;;;;5065171;28;20444;-54
2022/04/02 01:49:57;;;;;;;25.93;25.03;;;19.40;41.40;;;;;;5050758;28;20546;-53
2022/04/02 01:52:24;;;;;;;25.87;24.87;;;19.40;41.40;;;;;;5050402;28;20839;-55
2022/04/02 01:54:50;;;;;;;27.73;26.63;;;19.40;41.50;;;;;;5050273;28;20476;-53
2022/04/02 01:57:19;;;;;;;26.80;25.80;;;19.40;41.50;;;;;;5047880;28;20808;-52
2022/04/02 01:59:48;;;;;;;27.60;26.50;;;19.40;41.50;;;;;;5030487;28;20449;-56
2022/04/02 02:02:15;;;;;;;27.80;26.80;;;19.40;41.40;;;;;;5031587;28;20472;-53
2022/04/02 02:04:42;;;;;;;27.67;26.57;;;19.40;41.40;;;;;;5030315;28;20469;-54
2022/04/02 02:07:09;;;;;;;28.00;26.90;;;19.50;41.40;;;;;;5030476;28;20736;-51
2022/04/02 02:09:36;;;;;;;26.73;25.73;;;19.40;41.20;;;;;;5050244;28;20451;-52
2022/04/02 02:12:04;;;;;;;26.70;25.70;;;19.40;41.30;;;;;;5038288;28;20508;-51
2022/04/02 02:14:32;;;;;;;27.27;26.23;;;19.40;41.30;;;;;;5030261;28;20469;-55
2022/04/02 02:16:59;;;;;;;27.07;26.07;;;19.40;41.40;;;;;;5030333;28;20445;-55
2022/04/02 02:19:26;;;;;;;27.30;26.20;;;19.40;41.40;;;;;;5049531;28;20449;-54
2022/04/02 02:21:52;;;;;;;26.90;25.90;;;19.40;41.40;;;;;;5050565;28;20444;-51
2022/04/02 02:24:20;;;;;;;27.20;26.20;;;19.40;41.40;;;;;;5050259;28;20460;-54
2022/04/02 02:26:47;;;;;;;26.70;25.70;;;19.40;41.40;;;;;;5038759;28;20453;-52
2022/04/02 02:29:13;;;;;;;26.60;25.60;;;19.40;41.40;;;;;;5030386;28;20476;-54
2022/04/02 02:31:42;;;;;;;26.00;25.10;;;19.40;41.50;;;;;;5030077;28;20787;-54
2022/04/02 02:36:52;;;;;;;27.00;26.00;;;19.40;41.40;;;;;;5041428;28;20434;-53
2022/04/02 02:39:19;;;;;;;27.40;26.40;;;19.40;41.40;;;;;;5030165;28;20442;-52
2022/04/02 02:41:46;;;;;;;28.83;27.80;;;19.40;41.40;;;;;;5046304;28;20459;-51
2022/04/02 02:44:13;;;;;;;28.37;27.37;;;19.40;41.40;;;;;;5065183;28;20551;-54
2022/04/02 02:46:39;;;;;;;28.47;27.37;;;19.40;41.40;;;;;;5041910;28;20448;-54
2022/04/02 02:49:08;;;;;;;27.33;26.33;;;19.40;41.40;;;;;;5030020;28;20442;-56
2022/04/02 02:51:34;;;;;;;27.70;26.70;;;19.40;41.40;;;;;;5029930;28;20445;-54
2022/04/02 02:54:01;;;;;;;26.80;25.80;;;19.40;41.40;;;;;;5031073;28;20484;-53
2022/04/02 02:56:28;;;;;;;26.97;25.93;;;19.40;41.40;;;;;;5049515;28;20799;-51
2022/04/02 02:58:54;;;;;;;27.57;26.57;;;19.40;41.30;;;;;;5049796;28;20436;-55
2022/04/02 03:01:21;;;;;;;27.73;26.43;;;19.40;41.30;;;;;;5049846;28;20439;-54
2022/04/02 03:03:48;;;;;;;28.87;27.77;;;19.40;41.30;;;;;;5049428;28;20460;-55
2022/04/02 03:06:16;;;;;;;27.87;26.77;;;19.40;41.30;;;;;;5029518;28;20969;-52
2022/04/02 03:08:43;;;;;;;28.13;27.13;;;19.40;41.30;;;;;;5029753;28;21083;-54
2022/04/02 03:11:10;;;;;;;26.60;25.60;;;19.40;41.20;;;;;;5029662;28;20437;-54
2022/04/02 03:13:38;;;;;;;26.37;25.27;;;19.50;41.30;;;;;;5029644;28;21010;-54
2022/04/02 03:16:05;;;;;;;25.87;24.90;;;19.50;41.30;;;;;;5029274;28;20988;-60
2022/04/02 03:18:32;;;;;;;25.67;24.67;;;19.40;41.20;;;;;;5029848;28;20800;-51
2022/04/02 03:20:59;;;;;;;25.70;24.70;;;19.50;41.30;;;;;;5033529;28;20445;-52
2022/04/02 03:23:27;;;;;;;25.43;24.43;;;19.50;41.30;;;;;;5033201;28;20449;-53
2022/04/02 03:25:54;;;;;;;25.47;24.47;;;19.50;41.30;;;;;;5033171;28;20461;-54
2022/04/02 03:28:20;;;;;;;24.80;23.90;;;19.50;41.30;;;;;;5033416;28;20444;-53
2022/04/02 03:30:47;;;;;;;25.30;24.27;;;19.50;41.30;;;;;;5033331;28;20450;-52
2022/04/02 03:33:14;;;;;;;25.50;24.50;;;19.50;41.30;;;;;;5033044;28;20481;-51
2022/04/02 03:35:43;;;;;;;25.40;24.40;;;19.50;41.30;;;;;;5033221;28;20805;-53
2022/04/02 03:38:09;;;;;;;25.67;24.67;;;19.50;41.20;;;;;;5053969;28;20481;-56
2022/04/02 03:40:38;;;;;;;25.80;24.80;;;19.50;41.30;;;;;;5072858;28;20443;-54
2022/04/02 03:43:04;;;;;;;25.90;24.90;;;19.40;41.10;;;;;;5060074;28;20448;-52
2022/04/02 03:45:31;;;;;;;26.00;25.00;;;19.50;41.20;;;;;;5052735;28;20850;-53
2022/04/02 03:47:58;;;;;;;26.23;25.23;;;19.50;41.20;;;;;;5052877;28;20968;-56
2022/04/02 03:50:25;;;;;;;28.37;27.37;;;19.50;41.20;;;;;;5049002;28;20449;-52
2022/04/02 03:52:53;;;;;;;28.37;27.37;;;19.50;41.70;;;;;;5032848;28;20538;-58
2022/04/02 03:55:20;;;;;;;27.90;26.90;;;19.50;41.10;;;;;;5032378;28;20508;-52
2022/04/02 03:57:49;;;;;;;26.87;25.87;;;19.50;41.10;;;;;;5032602;28;20968;-55
2022/04/02 04:00:19;;;;;;;27.90;26.80;;;19.40;41.10;;;;;;5034547;28;20537;-57
2022/04/02 04:02:46;;;;;;;29.10;28.00;;;19.40;41.10;;;;;;5052489;28;20974;-53
2022/04/02 04:05:13;;;;;;;30.50;29.37;;;19.40;41.20;;;;;;5052357;28;20472;-51
2022/04/02 04:07:40;;;;;;;30.13;29.00;;;19.40;41.20;;;;;;5052190;28;20455;-52
2022/04/02 04:10:08;;;;;;;30.53;29.43;;;19.40;41.20;;;;;;5051491;28;20444;-57
2022/04/02 04:12:35;;;;;;;30.13;29.03;;;19.40;41.30;;;;;;5032039;28;20699;-53
2022/04/02 04:15:03;;;;;;;32.67;31.40;;;19.30;41.20;;;;;;5032463;28;20520;-55
2022/04/02 04:17:30;;;;;;;30.70;29.60;;;19.30;41.20;;;;;;5032152;28;20453;-53
2022/04/02 04:19:57;;;;;;;31.20;30.10;;;19.40;41.30;;;;;;5033447;28;20445;-56
2022/04/02 04:22:23;;;;;;;30.57;29.37;;;19.30;41.20;;;;;;5052301;28;20451;-54
2022/04/02 04:24:50;;;;;;;30.90;29.80;;;19.30;41.30;;;;;;5052196;28;20841;-54
2022/04/02 04:27:17;;;;;;;30.57;29.47;;;19.30;41.30;;;;;;5051780;28;20820;-55
2022/04/02 04:29:44;;;;;;;30.47;29.27;;;19.30;41.30;;;;;;5038464;28;20452;-56
2022/04/02 04:32:12;;;;;;;31.10;30.00;;;19.20;41.30;;;;;;5032119;28;20787;-53
2022/04/02 04:34:39;;;;;;;28.70;27.60;;;19.20;41.30;;;;;;5050378;28;20974;-53
2022/04/02 04:37:06;;;;;;;29.87;28.77;;;19.30;41.30;;;;;;5071738;28;20493;-53
2022/04/02 04:39:33;;;;;;;28.47;27.47;;;19.30;41.30;;;;;;5059082;28;20457;-55
2022/04/02 04:41:59;;;;;;;30.87;29.67;;;19.30;41.20;;;;;;5052023;28;20441;-54
2022/04/02 04:44:26;;;;;;;31.07;29.90;;;19.30;41.10;;;;;;5051832;28;20457;-53
2022/04/02 04:46:53;;;;;;;30.90;29.80;;;19.40;41.20;;;;;;5051933;28;20451;-52
2022/04/02 04:49:21;;;;;;;29.80;28.70;;;19.40;41.10;;;;;;5042068;28;20449;-53
2022/04/02 04:51:48;;;;;;;29.00;27.90;;;19.40;41.10;;;;;;5031882;28;20461;-53
2022/04/02 04:54:15;;;;;;;30.40;29.30;;;19.40;40.90;;;;;;5031503;28;20560;-53
2022/04/02 04:56:42;;;;;;;29.40;28.30;;;19.50;41.00;;;;;;5032686;28;20445;-52
2022/04/02 04:59:09;;;;;;;31.87;30.67;;;19.50;41.00;;;;;;5046979;28;20476;-56
2022/04/02 05:01:36;;;;;;;30.10;29.00;;;19.40;40.90;;;;;;5070475;28;20446;-56
2022/04/02 05:04:05;;;;;;;30.67;29.47;;;19.50;40.90;;;;;;5053794;28;20444;-57
2022/04/02 05:06:34;;;;;;;30.33;29.03;;;19.40;40.90;;;;;;5048343;28;20448;-55
2022/04/02 05:09:01;;;;;;;32.13;30.37;;;19.50;40.90;;;;;;5031452;28;20928;-53
2022/04/02 05:11:28;;;;;;;29.47;28.37;;;19.40;40.90;;;;;;5031261;28;20441;-53
2022/04/02 05:13:55;;;;;;;28.70;27.50;;;19.50;41.10;;;;;;5031230;28;20819;-53
2022/04/02 05:16:23;;;;;;;30.80;29.60;;;19.50;41.60;;;;;;5031032;28;20445;-55
2022/04/02 05:18:50;;;;;;;30.37;29.10;;;19.50;41.90;;;;;;5030969;28;20851;-54
2022/04/02 05:21:17;;;;;;;29.80;28.60;;;19.50;42.10;;;;;;5031301;28;20445;-57
2022/04/02 05:23:45;;;;;;;29.77;28.43;;;19.40;42.30;;;;;;5030807;28;20445;-52
2022/04/02 05:26:12;;;;;;;31.73;30.53;;;19.50;42.50;;;;;;5030742;28;20465;-56
2022/04/02 05:28:39;;;;;;;30.60;29.50;;;19.50;42.50;;;;;;5030637;28;20445;-56
2022/04/02 05:31:05;;;;;;;30.20;29.10;;;19.40;43.00;;;;;;5048368;28;20432;-55
2022/04/02 05:33:32;;;;;;;30.97;29.77;;;19.40;42.70;;;;;;5062505;28;20476;-62
2022/04/02 05:35:59;;;;;;;31.40;30.20;;;19.40;42.80;;;;;;5069787;28;20467;-56
2022/04/02 05:38:27;;;;;;;31.27;30.07;;;19.40;43.00;;;;;;5041527;28;20449;-57
2022/04/02 05:40:55;;;;;;;29.47;28.47;;;19.40;43.20;;;;;;5031914;28;20818;-51
2022/04/02 05:43:22;;;;;;;30.63;29.53;;;19.30;43.30;;;;;;5031489;28;20446;-60
2022/04/02 05:45:48;;;;;;;30.87;29.67;;;19.30;43.40;;;;;;5031683;28;20476;-57
2022/04/02 05:48:17;;;;;;;30.77;29.57;;;19.30;43.50;;;;;;5040395;28;20453;-55
2022/04/02 05:50:44;;;;;;;31.30;30.10;;;19.30;43.60;;;;;;5035643;28;20453;-57
2022/04/02 05:53:11;;;;;;;30.73;29.63;;;19.20;43.60;;;;;;5031976;28;20851;-64
2022/04/02 05:55:37;;;;;;;30.63;29.53;;;19.30;43.90;;;;;;5086871;22;20480;-55
2022/04/02 05:58:06;;;;;;;30.80;29.60;;;19.20;43.80;;;;;;5086195;28;20450;-55
2022/04/02 06:00:33;;;;;;;31.37;30.17;;;19.20;44.10;;;;;;5092978;28;20438;-60
2022/04/02 06:03:00;;;;;;;31.10;30.00;;;19.20;44.20;;;;;;5092018;28;20800;-62
2022/04/02 06:05:27;;;;;;;32.33;30.30;;;19.20;44.40;;;;;;5092249;28;20469;-60
2022/04/02 06:07:54;;;;;;;31.73;30.43;;;19.10;44.50;;;;;;5082268;28;20455;-50
2022/04/02 06:10:21;;;;;;;30.57;29.57;;;19.10;44.70;;;;;;5071435;28;20443;-48
2022/04/02 06:12:50;;;;;;;33.03;31.83;;;19.30;45.10;;;;;;5071393;28;20786;-50
2022/04/02 06:15:19;;;;;;;32.03;30.33;;;19.40;45.00;;;;;;5070971;28;20468;-50
2022/04/02 06:17:46;;;;;;;30.37;29.23;;;19.50;45.00;;;;;;5071377;28;20818;-51
2022/04/02 06:20:13;;;;;;;29.77;28.67;;;19.50;44.90;;;;;;5071488;28;20442;-50
2022/04/02 06:22:40;;;;;;;29.57;28.37;;;19.70;44.80;;;;;;5071466;28;20807;-50
2022/04/02 06:25:07;;;;;;;30.33;29.23;;;19.80;44.70;;;;;;5071538;28;20822;-49
2022/04/02 06:27:41;;;;;;;31.93;30.73;;;19.90;44.40;;;;;;5071102;28;20501;-50
2022/04/02 06:30:09;;;;;;;32.40;31.17;;;20.00;44.20;;;;;;5071612;28;20444;-49
2022/04/02 06:32:38;;;;;;;31.37;30.27;;;20.10;44.10;;;;;;5071455;28;20535;-49
2022/04/02 06:35:05;;;;;;;29.80;28.60;;;20.10;44.00;;;;;;5071292;28;20487;-49
2022/04/02 06:37:35;;;;;;;29.10;27.90;;;20.20;44.00;;;;;;5070830;28;20444;-51
2022/04/02 06:40:02;;;;;;;28.80;27.70;;;20.20;43.80;;;;;;5071413;28;20552;-46
2022/04/02 06:42:29;;;;;;;32.90;31.70;;;20.20;43.70;;;;;;5071380;28;20860;-46
2022/04/02 06:44:55;;;;;;;28.73;27.73;;;20.20;43.80;;;;;;5071123;28;20459;-46
2022/04/02 06:47:26;;;;;;;30.00;28.93;;;20.20;43.80;;;;;;5070762;28;20814;-46
2022/04/02 06:49:54;;;;;;;30.13;29.03;;;20.20;43.80;;;;;;5071324;28;20443;-48
2022/04/02 06:52:21;;;;;;;30.20;29.10;;;20.20;43.70;;;;;;5071323;28;20443;-46
2022/04/02 06:54:48;;;;;;;31.10;29.70;;;20.20;43.70;;;;;;5074961;28;20487;-49
2022/04/02 06:57:19;;;;;;;30.20;29.10;;;20.20;43.70;;;;;;5074804;28;20447;-48
2022/04/02 06:59:46;;;;;;;31.60;30.30;;;20.20;43.70;;;;;;5075266;28;20504;-51
2022/04/02 07:02:12;;;;;;;32.23;31.03;;;20.20;43.80;;;;;;5075150;28;20447;-50
2022/04/02 07:04:39;;;;;;;30.23;29.13;;;20.20;43.70;;;;;;5074830;28;20466;-51
2022/04/02 07:07:07;;;;;;;31.70;30.50;;;20.20;43.70;;;;;;5074770;28;20447;-52
2022/04/02 07:09:34;;;;;;;29.50;28.40;;;20.20;43.80;;;;;;5074983;28;20448;-50
2022/04/02 07:12:01;;;;;;;31.00;29.80;;;20.10;43.70;;;;;;5074901;28;20782;-55
2022/04/02 07:14:28;;;;;;;29.17;27.98;;;20.10;43.80;;;;;;5074218;28;20445;-52
2022/04/02 07:16:54;;;;;;;31.30;30.10;;;20.10;44.10;;;;;;5074727;28;20571;-51
2022/04/02 07:19:22;;;;;;;30.10;29.00;;;20.10;43.90;;;;;;5074805;28;20447;-51
2022/04/02 07:21:52;;;;;;;32.67;31.47;;;20.00;44.00;;;;;;5074797;28;20451;-52
2022/04/02 07:24:21;;;;;;;31.90;30.70;;;20.10;44.00;;;;;;5074325;28;20442;-44
2022/04/02 07:26:48;;;;;;;34.73;33.53;;;20.10;44.10;;;;;;5074537;28;20677;-50
2022/04/02 07:29:16;;;;;;;31.50;30.40;;;20.10;44.00;;;;;;5074493;28;20440;-51
2022/04/02 07:31:44;;;;;;;30.27;29.17;;;20.00;43.80;;;;;;5074572;28;20458;-51
2022/04/02 07:34:11;;;;;;;31.53;30.37;;;20.00;43.80;;;;;;5074188;28;20479;-48
2022/04/02 07:36:46;;;;;;;30.50;29.40;;;20.00;43.90;;;;;;5073212;28;20950;-45
2022/04/02 07:39:16;;;;;;;33.47;32.13;;;19.90;43.90;;;;;;5074497;28;20452;-47
2022/04/02 07:41:54;;;;;;;31.17;29.97;;;20.00;44.20;;;;;;5074294;28;20452;-47
2022/04/02 07:44:30;;;;;;;31.50;30.40;;;20.00;44.10;;;;;;5074203;28;20439;-46
2022/04/02 07:46:58;;;;;;;30.80;29.53;;;20.00;44.00;;;;;;5074275;28;20443;-46
2022/04/02 07:49:28;;;;;;;30.67;29.37;;;20.00;44.10;;;;;;5074107;28;20455;-46
2022/04/02 07:51:57;;;;;;;31.83;30.53;;;20.10;44.10;;;;;;5074267;28;20828;-47
2022/04/02 07:54:25;;;;;;;31.40;30.20;;;20.20;44.40;;;;;;5073968;28;20482;-47
2022/04/02 07:57:01;;;;;;;30.63;29.43;;;20.60;44.40;;;;;;5073786;28;20443;-46
2022/04/02 07:59:34;;;;;;;30.80;29.60;;;21.00;43.80;;;;;;5073453;28;20455;-51
2022/04/02 08:02:02;;;;;;;33.13;31.83;;;21.30;43.70;;;;;;5074075;28;20447;-47
2022/04/02 08:04:29;;;;;;;31.30;30.20;;;21.60;42.90;;;;;;5072875;28;20810;-50
2022/04/02 08:06:56;;;;;;;29.10;27.90;;;22.00;42.70;;;;;;5073985;28;20534;-48
2022/04/02 08:09:23;;;;;;;29.23;28.13;;;22.30;42.00;;;;;;5073877;28;20450;-50
2022/04/02 08:11:52;;;;;;;29.83;28.67;;;22.60;41.60;;;;;;5073842;28;20447;-49
2022/04/02 08:14:21;;;;;;;30.00;28.80;;;22.80;41.70;;;;;;5072730;28;20486;-51
2022/04/02 08:16:49;;;;;;;29.83;28.63;;;23.00;40.70;;;;;;5073901;28;20539;-47
2022/04/02 08:19:22;;;;;;;33.57;32.27;;;23.10;40.30;;;;;;5073637;28;20444;-44
2022/04/02 08:21:49;;;;;;;32.30;30.90;;;23.20;40.10;;;;;;5054170;28;20663;-58
2022/04/02 08:24:15;;;;;;;31.73;30.53;;;23.20;39.80;;;;;;5061067;28;20435;-45
2022/04/02 08:26:56;;;;;;;29.40;28.20;;;23.30;39.70;;;;;;5073772;28;20444;-44
2022/04/02 08:29:34;;;;;;;29.87;28.77;;;23.40;39.60;;;;;;5073843;28;20470;-43
2022/04/02 08:32:09;;;;;;;33.30;32.00;;;23.60;39.60;;;;;;5074023;28;20930;-44
2022/04/02 08:34:55;;;;;;;33.07;31.87;;;23.90;39.30;;;;;;5073296;28;20483;-44
2022/04/02 08:37:28;;;;;;;32.83;31.60;;;24.10;39.10;;;;;;5058632;28;20444;-44
2022/04/02 08:40:02;;;;;;;29.10;28.00;;;24.10;38.70;;;;;;5056022;28;20579;-43
2022/04/02 08:43:10;;;;;;;30.50;29.20;;;24.20;38.50;;;;;;5073140;28;20448;-42
2022/04/02 08:45:55;;;;;;;31.53;30.27;;;24.30;38.30;;;;;;5025377;28;20479;-42
2022/04/02 08:48:26;;;;;;;33.47;32.17;;;24.30;38.10;;;;;;5068493;28;20446;-43
2022/04/02 08:51:23;;;;;;;31.97;30.77;;;24.30;38.50;;;;;;5073244;28;20439;-43
2022/04/02 08:53:54;;;;;;;32.03;30.83;;;24.40;37.80;;;;;;5072914;28;20440;-44
2022/04/02 08:56:25;;;;;;;34.10;32.80;;;24.40;37.60;;;;;;5072785;28;20536;-44
2022/04/02 08:59:00;;;;;;;27.00;25.90;;;24.70;37.60;;;;;;5072035;28;20449;-53
2022/04/02 09:01:40;;;;;;;30.50;29.20;;;24.90;37.30;;;;;;5073544;28;20300;-44
2022/04/02 09:04:52;;;;;;;30.50;29.40;;;25.10;37.20;;;;;;5073140;28;20450;-44
2022/04/02 09:07:53;;;;;;;33.03;31.73;;;25.20;36.90;;;;;;5072577;28;20478;-44
2022/04/02 09:10:56;;;;;;;32.27;30.97;;;25.20;36.70;;;;;;5067631;28;20514;-45
2022/04/02 09:13:56;;;;;;;31.40;30.20;;;25.20;36.60;;;;;;5052741;28;20440;-43
2022/04/02 09:16:27;;;;;;;31.20;30.00;;;25.20;36.50;;;;;;5051603;28;20507;-44
2022/04/02 09:19:13;;;;;;;31.43;30.23;;;25.20;36.40;;;;;;5052883;28;20866;-46
2022/04/02 09:22:00;;;;;;;32.10;30.80;;;25.20;36.40;;;;;;5053031;28;20448;-44
2022/04/02 09:24:47;;;;;;;30.80;29.70;;;25.40;36.30;;;;;;5052818;28;20440;-44
2022/04/02 09:27:54;;;;;;;31.93;30.73;;;25.60;35.90;;;;;;5052286;28;20445;-46
2022/04/02 09:30:42;;;;;;;38.00;35.80;;;25.70;34.90;;;;;;5052626;28;20444;-47
2022/04/02 09:33:40;;;;;;;41.83;38.13;;;25.80;34.70;;;;;;5051784;28;20431;-45
2022/04/02 09:36:28;;;;;;;66.20;58.03;;;25.90;34.80;;;;;;5052186;28;20230;-46
2022/04/02 09:39:06;;;;;;;65.10;56.43;;;25.90;34.80;;;;;;5052497;28;20452;-46
2022/04/02 09:41:56;;;;;;;65.53;52.20;;;25.90;34.80;;;;;;5051015;28;20439;-45
2022/04/02 09:44:37;;;;;;;61.50;54.77;;;25.90;35.40;;;;;;5048139;28;20198;-44
2022/04/02 09:47:19;;;;;;;78.40;57.00;;;25.90;35.40;;;;;;5058576;28;20450;-45
2022/04/02 09:49:56;;;;;;;66.43;58.80;;;26.00;35.30;;;;;;5072261;28;20462;-45
2022/04/02 09:52:26;;;;;;;62.90;56.83;;;26.00;35.50;;;;;;5071990;28;20443;-44
2022/04/02 09:55:06;;;;;;;57.20;50.63;;;26.20;35.40;;;;;;5070699;28;20446;-44
2022/04/02 09:57:41;;;;;;;57.10;51.13;;;26.30;34.80;;;;;;5071721;28;20823;-44
2022/04/02 10:00:09;;;;;;;59.23;52.93;;;26.40;34.50;;;;;;5072124;28;20439;-44
2022/04/02 10:02:59;;;;;;;55.97;50.80;;;26.30;34.50;;;;;;5071838;28;20449;-45
2022/04/02 10:05:37;;;;;;;55.73;50.57;;;26.30;34.60;;;;;;5071734;28;20460;-45
2022/04/02 10:08:06;;;;;;;51.40;46.30;;;26.30;34.70;;;;;;5071816;28;20505;-44
2022/04/02 10:10:35;;;;;;;49.97;44.97;;;26.30;34.60;;;;;;5070609;28;20430;-44
2022/04/02 10:13:04;;;;;;;55.87;50.07;;;26.30;34.50;;;;;;5071868;28;20205;-45
2022/04/02 10:15:32;;;;;;;53.90;49.20;;;26.30;34.40;;;;;;5071396;28;20482;-45
2022/04/02 10:18:03;;;;;;;51.83;47.80;;;26.30;34.40;;;;;;5071664;28;20509;-44
2022/04/02 10:20:31;;;;;;;51.83;46.97;;;26.30;34.20;;;;;;5071835;28;20455;-45
2022/04/02 10:23:06;;;;;;;49.27;44.43;;;26.40;34.10;;;;;;5071912;28;20455;-47
2022/04/02 10:25:45;;;;;;;50.07;45.70;;;26.40;33.90;;;;;;5071264;28;20482;-45
2022/04/02 10:28:14;;;;;;;49.47;45.03;;;26.50;33.70;;;;;;5071176;28;20814;-45
2022/04/02 10:30:45;;;;;;;47.80;43.33;;;26.50;33.70;;;;;;5070913;28;20445;-44
2022/04/02 10:33:27;;;;;;;47.40;43.50;;;26.50;34.30;;;;;;5071507;28;20683;-45
2022/04/02 10:35:55;;;;;;;46.77;42.70;;;26.60;33.70;;;;;;5071269;28;20489;-45
2022/04/02 10:38:35;;;;;;;46.83;42.95;;;26.80;33.70;;;;;;5071139;28;20438;-45
2022/04/02 10:41:08;;;;;;;48.33;44.53;;;26.90;33.40;;;;;;5071438;28;20285;-45
2022/04/02 10:43:37;;;;;;;48.30;44.60;;;27.00;33.20;;;;;;5071452;28;20762;-44
2022/04/02 10:46:05;;;;;;;46.23;43.13;;;27.00;33.20;;;;;;5070998;28;20467;-46
2022/04/02 10:48:53;;;;;;;47.27;43.03;;;26.90;33.20;;;;;;5052427;28;20808;-45
2022/04/02 10:51:23;;;;;;;46.37;42.60;;;26.90;33.10;;;;;;5051221;28;20448;-46
2022/04/02 10:54:02;;;;;;;45.73;42.53;;;26.90;33.00;;;;;;5051561;28;20501;-45
2022/04/02 10:56:35;;;;;;;45.33;42.03;;;26.90;32.90;;;;;;5050721;28;20991;-45
2022/04/02 10:59:02;;;;;;;44.43;41.13;;;26.80;33.00;;;;;;5051147;28;20440;-44
2022/04/02 11:01:32;;;;;;;42.43;39.40;;;27.00;33.20;;;;;;5051093;28;20448;-44
2022/04/02 11:04:07;;;;;;;45.80;42.70;;;27.20;33.00;;;;;;5051097;28;20444;-45
2022/04/02 11:06:50;;;;;;;45.70;42.40;;;27.30;32.60;;;;;;5050687;28;20467;-45
2022/04/02 11:09:34;;;;;;;41.20;38.73;;;27.10;32.50;;;;;;5050998;28;20440;-45
2022/04/02 11:12:08;;;;;;;44.40;41.27;;;27.00;32.80;;;;;;5051187;28;20452;-45
2022/04/02 11:14:43;;;;;;;42.70;40.00;;;26.80;33.00;;;;;;5050775;28;20547;-44
2022/04/02 11:17:10;;;;;;;43.97;41.10;;;26.60;33.10;;;;;;5050807;28;20443;-45
2022/04/02 11:19:56;;;;;;;35.10;32.67;;;26.50;33.30;;;;;;5049754;28;20454;-45
2022/04/02 11:22:29;;;;;;;39.43;36.93;;;26.50;33.40;;;;;;5050979;28;20355;-46
2022/04/02 11:25:03;;;;;;;39.23;36.37;;;26.70;33.60;;;;;;5051016;28;20854;-47
2022/04/02 11:27:36;;;;;;;38.27;36.00;;;27.00;33.40;;;;;;5050883;28;20445;-46
2022/04/02 11:30:06;;;;;;;37.60;35.37;;;27.30;32.90;;;;;;5050974;28;20448;-46
2022/04/02 11:32:41;;;;;;;42.30;40.00;;;27.40;32.70;;;;;;5051220;28;20935;-45
2022/04/02 11:35:10;;;;;;;41.47;39.13;;;27.50;32.60;;;;;;5050950;28;20560;-47
2022/04/02 11:38:01;;;;;;;38.87;36.47;;;27.70;32.40;;;;;;5050624;28;20465;-46
2022/04/02 11:40:29;;;;;;;43.30;40.40;;;28.00;32.10;;;;;;5048849;28;20456;-45
2022/04/02 11:43:02;;;;;;;39.03;37.03;;;28.20;31.70;;;;;;5054534;28;20440;-44
2022/04/02 11:45:30;;;;;;;40.40;38.17;;;28.20;31.30;;;;;;5054243;28;20456;-44
2022/04/02 11:48:08;;;;;;;39.10;36.67;;;28.20;31.40;;;;;;5068189;28;20450;-44
2022/04/02 11:50:38;;;;;;;39.47;37.30;;;28.20;31.40;;;;;;5074354;28;20680;-44
2022/04/02 11:53:05;;;;;;;41.03;38.80;;;28.00;31.40;;;;;;5074390;28;20470;-45
2022/04/02 11:55:35;;;;;;;41.10;38.87;;;28.00;31.70;;;;;;5098277;22;20483;-45
2022/04/02 11:58:06;;;;;;;38.37;36.20;;;28.10;31.80;;;;;;5065886;28;20450;-44
2022/04/02 12:00:36;;;;;;;36.83;34.13;;;28.10;31.70;;;;;;5074080;28;20930;-45
2022/04/02 12:03:06;;;;;;;39.70;37.47;;;28.10;31.80;;;;;;5074045;28;20443;-44
2022/04/02 12:05:40;;;;;;;39.90;37.43;;;28.00;31.70;;;;;;5073864;28;20635;-44
2022/04/02 12:08:08;;;;;;;39.03;36.70;;;28.00;31.70;;;;;;5074021;28;20492;-43
2022/04/02 12:10:44;;;;;;;38.33;36.43;;;28.00;31.80;;;;;;5073823;28;20822;-43
2022/04/02 12:13:12;;;;;;;33.60;31.70;;;27.90;31.80;;;;;;5073113;28;20438;-42
2022/04/02 12:15:40;;;;;;;33.67;31.77;;;27.90;31.80;;;;;;5072482;28;20450;-46
2022/04/02 12:18:08;;;;;;;38.33;36.17;;;27.80;31.50;;;;;;5073697;28;20200;-44
2022/04/02 12:20:37;;;;;;;35.67;33.83;;;27.90;31.40;;;;;;5073824;28;20486;-47
2022/04/02 12:23:08;;;;;;;37.30;35.30;;;27.90;31.30;;;;;;5073898;28;20454;-46
2022/04/02 12:25:36;;;;;;;35.80;34.10;;;27.90;31.40;;;;;;5073266;28;20482;-46
2022/04/02 12:28:12;;;;;;;37.97;35.90;;;28.20;31.90;;;;;;5073313;28;20949;-45
2022/04/02 12:30:43;;;;;;;37.53;35.63;;;28.90;31.00;;;;;;5073796;28;20500;-45
2022/04/02 12:33:14;;;;;;;37.03;35.10;;;29.60;30.30;;;;;;5073793;28;20439;-44
2022/04/02 12:35:45;;;;;;;37.60;35.80;;;29.70;29.90;;;;;;5073380;28;20968;-45
2022/04/02 12:38:24;;;;;;;35.40;33.80;;;29.80;29.80;;;;;;5073455;28;20450;-45
2022/04/02 12:40:51;;;;;;;36.90;35.10;;;29.70;29.60;;;;;;5073359;28;20938;-44
2022/04/02 12:43:25;;;;;;;35.00;33.40;;;29.30;29.70;;;;;;5073373;28;20443;-46
2022/04/02 12:45:52;;;;;;;37.37;35.53;;;29.10;30.00;;;;;;5073133;28;20859;-44
2022/04/02 12:48:20;;;;;;;36.33;34.50;;;28.90;30.10;;;;;;5073118;28;20447;-47